createdAt,value
2023-03-01T00:01:43.265Z,-0.71
2023-03-01T00:04:11.155Z,-0.73
2023-03-01T00:06:39.092Z,-0.75
2023-03-01T00:09:08.286Z,-0.74
2023-03-01T00:11:36.170Z,-0.75
2023-03-01T00:14:05.983Z,-0.75
2023-03-01T00:16:37.000Z,-0.80
2023-03-01T00:19:05.225Z,-0.85
2023-03-01T00:21:33.049Z,-0.87
2023-03-01T00:24:01.045Z,-0.89
2023-03-01T00:26:29.300Z,-0.91
2023-03-01T00:28:59.460Z,-0.94
2023-03-01T00:31:33.269Z,-0.97
2023-03-01T00:34:02.581Z,-0.96
2023-03-01T00:36:36.681Z,-0.94
2023-03-01T00:39:06.977Z,-0.92
2023-03-01T00:41:35.845Z,-0.89
2023-03-01T00:44:04.054Z,-0.84
2023-03-01T00:46:32.309Z,-0.82
2023-03-01T00:49:03.144Z,-0.81
2023-03-01T00:51:31.665Z,-0.79
2023-03-01T00:54:02.729Z,-0.76
2023-03-01T00:56:33.578Z,-0.73
2023-03-01T00:59:02.543Z,-0.69
2023-03-01T01:01:32.207Z,-0.64
2023-03-01T01:04:03.585Z,-0.59
2023-03-01T01:06:34.442Z,-0.54
2023-03-01T01:09:03.848Z,-0.47
2023-03-01T01:11:32.787Z,-0.39
2023-03-01T01:14:00.655Z,-0.34
2023-03-01T01:16:29.843Z,-0.29
2023-03-01T01:18:59.054Z,-0.24
2023-03-01T01:21:28.300Z,-0.19
2023-03-01T01:23:56.543Z,-0.13
2023-03-01T01:26:27.606Z,-0.07
2023-03-01T01:28:56.213Z,-0.05
2023-03-01T01:31:24.852Z,-0.04
2023-03-01T01:33:54.312Z,-0.04
2023-03-01T01:36:23.165Z,-0.06
2023-03-01T01:38:51.325Z,-0.06
2023-03-01T01:41:20.397Z,-0.06
2023-03-01T01:44:10.014Z,-0.03
2023-03-01T01:46:41.960Z,-0.02
2023-03-01T01:49:38.026Z,-0.02
2023-03-01T01:52:09.046Z,-0.04
2023-03-01T01:54:42.795Z,-0.06
2023-03-01T01:57:17.416Z,-0.06
2023-03-01T01:59:49.770Z,-0.08
2023-03-01T02:02:17.808Z,-0.09
2023-03-01T02:04:46.122Z,-0.09
2023-03-01T02:07:21.868Z,-0.10
2023-03-01T02:09:51.456Z,-0.10
2023-03-01T02:12:24.378Z,-0.07
2023-03-01T02:14:52.361Z,-0.04
2023-03-01T02:17:22.155Z,-0.01
2023-03-01T02:20:22.639Z,0.03
2023-03-01T02:22:51.258Z,0.06
2023-03-01T02:25:57.023Z,0.10
2023-03-01T02:28:38.530Z,0.16
2023-03-01T02:31:27.789Z,0.23
2023-03-01T02:33:57.328Z,0.29
2023-03-01T02:36:35.100Z,0.36
2023-03-01T02:39:05.471Z,0.44
2023-03-01T02:41:37.786Z,0.48
2023-03-01T02:44:06.728Z,0.52
2023-03-01T02:46:34.901Z,0.56
2023-03-01T02:49:02.849Z,0.60
2023-03-01T02:51:33.827Z,0.63
2023-03-01T02:54:23.441Z,0.64
2023-03-01T02:56:51.978Z,0.64
2023-03-01T02:59:23.582Z,0.66
2023-03-01T03:01:51.452Z,0.69
2023-03-01T03:04:22.041Z,0.71
2023-03-01T03:06:51.792Z,0.71
2023-03-01T03:09:20.142Z,0.70
2023-03-01T03:11:48.100Z,0.68
2023-03-01T03:14:17.746Z,0.67
2023-03-01T03:16:48.589Z,0.67
2023-03-01T03:19:18.065Z,0.67
2023-03-01T03:21:46.668Z,0.68
2023-03-01T03:24:14.592Z,0.67
2023-03-01T03:26:42.580Z,0.62
2023-03-01T03:29:10.516Z,0.56
2023-03-01T03:31:38.483Z,0.54
2023-03-01T03:34:06.329Z,0.53
2023-03-01T03:36:34.198Z,0.53
2023-03-01T03:39:02.078Z,0.54
2023-03-01T03:41:30.006Z,0.56
2023-03-01T03:43:57.915Z,0.56
2023-03-01T03:46:26.428Z,0.58
2023-03-01T03:48:54.335Z,0.60
2023-03-01T03:51:23.912Z,0.62
2023-03-01T03:53:52.380Z,0.60
2023-03-01T03:56:20.368Z,0.59
2023-03-01T03:58:48.254Z,0.60
2023-03-01T04:01:16.278Z,0.61
2023-03-01T04:03:47.843Z,0.61
2023-03-01T04:06:16.138Z,0.62
2023-03-01T04:08:44.155Z,0.63
2023-03-01T04:11:28.301Z,0.63
2023-03-01T04:13:58.770Z,0.64
2023-03-01T04:16:27.727Z,0.63
2023-03-01T04:18:55.742Z,0.62
2023-03-01T04:21:23.937Z,0.60
2023-03-01T04:23:53.678Z,0.59
2023-03-01T04:26:22.030Z,0.60
2023-03-01T04:28:51.657Z,0.62
2023-03-01T04:31:22.445Z,0.63
2023-03-01T04:33:53.341Z,0.62
2023-03-01T04:36:26.535Z,0.61
2023-03-01T04:38:57.764Z,0.62
2023-03-01T04:41:26.780Z,0.64
2023-03-01T04:43:54.652Z,0.67
2023-03-01T04:46:23.265Z,0.68
2023-03-01T04:48:51.264Z,0.69
2023-03-01T04:51:19.513Z,0.72
2023-03-01T04:53:48.272Z,0.73
2023-03-01T04:56:16.990Z,0.74
2023-03-01T04:58:45.786Z,0.73
2023-03-01T05:01:20.381Z,0.70
2023-03-01T05:03:51.308Z,0.69
2023-03-01T05:06:20.831Z,0.66
2023-03-01T05:08:49.005Z,0.68
2023-03-01T05:11:16.828Z,0.70
2023-03-01T05:13:44.651Z,0.73
2023-03-01T05:16:13.262Z,0.74
2023-03-01T05:18:42.090Z,0.78
2023-03-01T05:21:18.188Z,0.80
2023-03-01T05:23:47.947Z,0.81
2023-03-01T05:26:33.915Z,0.82
2023-03-01T05:29:02.096Z,0.85
2023-03-01T05:31:31.763Z,0.88
2023-03-01T05:34:00.124Z,0.91
2023-03-01T05:36:28.017Z,0.93
2023-03-01T05:38:56.900Z,0.96
2023-03-01T05:41:25.018Z,1.00
2023-03-01T05:43:52.887Z,1.05
2023-03-01T05:46:20.838Z,1.06
2023-03-01T05:48:49.470Z,1.06
2023-03-01T05:51:18.793Z,1.06
2023-03-01T05:53:46.922Z,1.08
2023-03-01T05:56:14.866Z,1.09
2023-03-01T05:58:42.814Z,1.11
2023-03-01T06:01:14.562Z,1.14
2023-03-01T06:03:43.102Z,1.14
2023-03-01T06:06:11.050Z,1.14
2023-03-01T06:08:38.977Z,1.16
2023-03-01T06:11:08.254Z,1.21
2023-03-01T06:13:36.543Z,1.25
2023-03-01T06:16:09.116Z,1.28
2023-03-01T06:18:38.544Z,1.33
2023-03-01T06:21:08.012Z,1.38
2023-03-01T06:23:36.337Z,1.41
2023-03-01T06:26:09.365Z,1.42
2023-03-01T06:28:37.411Z,1.43
2023-03-01T06:31:09.915Z,1.46
2023-03-01T06:33:38.062Z,1.51
2023-03-01T06:36:06.487Z,1.57
2023-03-01T06:38:34.611Z,1.62
2023-03-01T06:41:02.996Z,1.68
2023-03-01T06:43:31.011Z,1.67
2023-03-01T06:45:58.880Z,1.65
2023-03-01T06:48:26.815Z,1.64
2023-03-01T06:50:55.018Z,1.64
2023-03-01T06:53:22.814Z,1.68
2023-03-01T06:55:55.954Z,1.73
2023-03-01T06:58:24.222Z,1.74
2023-03-01T07:00:52.054Z,1.70
2023-03-01T07:03:19.992Z,1.67
2023-03-01T07:05:51.016Z,1.69
2023-03-01T07:08:19.778Z,1.73
2023-03-01T07:10:47.631Z,1.77
2023-03-01T07:13:15.470Z,1.84
2023-03-01T07:15:44.534Z,1.90
2023-03-01T07:18:12.444Z,1.95
2023-03-01T07:20:40.401Z,2.02
2023-03-01T07:23:08.349Z,2.09
2023-03-01T07:25:36.853Z,2.13
2023-03-01T07:28:05.089Z,2.11
2023-03-01T07:30:33.382Z,2.10
2023-03-01T07:33:01.400Z,2.12
2023-03-01T07:35:29.549Z,2.13
2023-03-01T07:37:57.546Z,2.16
2023-03-01T07:40:25.372Z,2.20
2023-03-01T07:43:00.207Z,2.25
2023-03-01T07:45:29.455Z,2.31
2023-03-01T07:47:57.498Z,2.38
2023-03-01T07:50:25.477Z,2.44
2023-03-01T07:52:53.311Z,2.48
2023-03-01T07:55:21.192Z,2.55
2023-03-01T07:57:49.051Z,2.62
2023-03-01T08:00:17.257Z,2.71
2023-03-01T08:02:45.146Z,2.80
2023-03-01T08:05:13.082Z,2.86
2023-03-01T08:07:41.010Z,2.94
2023-03-01T08:10:10.159Z,3.05
2023-03-01T08:12:38.016Z,3.14
2023-03-01T08:15:07.011Z,3.20
2023-03-01T08:17:34.889Z,3.28
2023-03-01T08:20:07.778Z,3.38
2023-03-01T08:22:35.608Z,3.51
2023-03-01T08:25:03.552Z,3.63
2023-03-01T08:27:31.332Z,3.74
2023-03-01T08:29:59.119Z,3.85
2023-03-01T08:32:27.088Z,3.95
2023-03-01T08:34:55.385Z,4.01
2023-03-01T08:37:23.291Z,4.01
2023-03-01T08:39:51.541Z,4.06
2023-03-01T08:42:19.847Z,4.08
2023-03-01T08:44:47.653Z,4.09
2023-03-01T08:47:15.511Z,4.11
2023-03-01T08:49:43.395Z,4.19
2023-03-01T08:52:11.218Z,4.32
2023-03-01T08:54:39.228Z,4.46
2023-03-01T08:57:06.994Z,4.60
2023-03-01T08:59:38.401Z,4.73
2023-03-01T09:02:16.996Z,4.83
2023-03-01T09:04:45.351Z,4.92
2023-03-01T09:07:13.196Z,4.96
2023-03-01T09:09:41.343Z,4.96
2023-03-01T09:12:09.285Z,5.00
2023-03-01T09:14:40.180Z,5.07
2023-03-01T09:17:08.096Z,5.16
2023-03-01T09:19:36.025Z,5.24
2023-03-01T09:22:05.597Z,5.31
2023-03-01T09:24:33.440Z,5.41
2023-03-01T09:27:01.909Z,5.51
2023-03-01T09:29:30.460Z,5.59
2023-03-01T09:31:58.350Z,5.66
2023-03-01T09:34:26.870Z,5.73
2023-03-01T09:36:54.727Z,5.79
2023-03-01T09:39:22.637Z,5.84
2023-03-01T09:42:05.634Z,5.91
2023-03-01T09:45:00.423Z,6.01
2023-03-01T09:47:42.431Z,6.15
2023-03-01T09:50:22.036Z,6.27
2023-03-01T09:53:12.453Z,6.39
2023-03-01T09:55:46.475Z,6.54
2023-03-01T09:58:32.967Z,6.70
2023-03-01T10:01:11.477Z,6.86
2023-03-01T10:04:02.138Z,6.98
2023-03-01T10:06:35.324Z,7.16
2023-03-01T10:09:12.067Z,7.30
2023-03-01T10:11:46.162Z,7.44
2023-03-01T10:14:39.390Z,7.54
2023-03-01T10:17:32.902Z,7.63
2023-03-01T10:20:58.369Z,7.70
2023-03-01T10:23:29.171Z,7.71
2023-03-01T10:26:18.992Z,7.72
2023-03-01T10:29:05.468Z,7.75
2023-03-01T10:31:47.245Z,7.82
2023-03-01T10:34:25.482Z,7.89
2023-03-01T10:36:57.451Z,8.00
2023-03-01T10:39:27.483Z,8.10
2023-03-01T10:41:59.865Z,8.19
2023-03-01T10:44:41.527Z,8.20
2023-03-01T10:47:23.685Z,8.24
2023-03-01T10:50:04.745Z,8.30
2023-03-01T10:52:36.521Z,8.34
2023-03-01T10:55:29.618Z,8.40
2023-03-01T10:58:14.105Z,8.49
2023-03-01T11:01:03.715Z,8.65
2023-03-01T11:03:33.418Z,8.85
2023-03-01T11:06:01.188Z,9.00
2023-03-01T11:08:45.921Z,9.12
2023-03-01T11:11:13.983Z,9.20
2023-03-01T11:14:02.055Z,9.29
2023-03-01T11:16:34.451Z,9.39
2023-03-01T11:19:16.916Z,9.47
2023-03-01T11:22:12.283Z,9.54
2023-03-01T11:24:49.349Z,9.62
2023-03-01T11:27:27.416Z,9.75
2023-03-01T11:29:58.418Z,9.88
2023-03-01T11:32:29.478Z,10.01
2023-03-01T11:35:25.441Z,10.13
2023-03-01T11:37:56.310Z,10.18
2023-03-01T11:40:30.771Z,10.23
2023-03-01T11:43:11.114Z,10.27
2023-03-01T11:45:55.593Z,10.26
2023-03-01T11:48:51.717Z,10.15
2023-03-01T11:51:24.586Z,10.06
2023-03-01T11:54:15.657Z,9.99
2023-03-01T11:56:51.707Z,9.93
2023-03-01T11:59:38.655Z,9.86
2023-03-01T12:02:41.863Z,9.75
2023-03-01T12:05:25.692Z,9.67
2023-03-01T12:08:03.423Z,9.53
2023-03-01T12:11:09.758Z,9.41
2023-03-01T12:13:56.142Z,9.27
2023-03-01T12:16:39.033Z,9.11
2023-03-01T12:19:24.225Z,8.93
2023-03-01T12:22:08.472Z,8.76
2023-03-01T12:24:52.570Z,8.64
2023-03-01T12:28:02.621Z,8.52
2023-03-01T12:30:44.517Z,8.45
2023-03-01T12:33:21.368Z,8.43
2023-03-01T12:36:15.059Z,8.44
2023-03-01T12:38:49.895Z,8.46
2023-03-01T12:41:39.117Z,8.46
2023-03-01T12:44:24.866Z,8.44
2023-03-01T12:47:11.582Z,8.39
2023-03-01T12:49:54.751Z,8.35
2023-03-01T12:52:33.202Z,8.34
2023-03-01T12:55:03.547Z,8.35
2023-03-01T12:57:41.510Z,8.35
2023-03-01T13:00:40.168Z,8.35
2023-03-01T13:03:32.580Z,8.39
2023-03-01T13:06:17.816Z,8.45
2023-03-01T13:08:58.213Z,8.49
2023-03-01T13:11:26.155Z,8.51
2023-03-01T13:14:19.516Z,8.52
2023-03-01T13:16:50.420Z,8.56
2023-03-01T13:19:23.588Z,8.59
2023-03-01T13:21:55.648Z,8.59
2023-03-01T13:25:01.677Z,8.54
2023-03-01T13:27:30.611Z,8.50
2023-03-01T13:30:04.623Z,8.50
2023-03-01T13:32:44.773Z,8.45
2023-03-01T13:35:16.175Z,8.39
2023-03-01T13:37:46.580Z,8.39
2023-03-01T13:40:19.164Z,8.40
2023-03-01T13:42:59.281Z,8.41
2023-03-01T13:45:37.244Z,8.43
2023-03-01T13:48:12.199Z,8.44
2023-03-01T13:50:49.190Z,8.45
2023-03-01T13:53:24.297Z,8.46
2023-03-01T13:55:59.995Z,8.44
2023-03-01T13:58:34.187Z,8.43
2023-03-01T14:01:06.997Z,8.41
2023-03-01T14:03:42.729Z,8.41
2023-03-01T14:06:20.928Z,8.41
2023-03-01T14:08:51.660Z,8.40
2023-03-01T14:11:56.912Z,8.40
2023-03-01T14:14:34.276Z,8.41
2023-03-01T14:17:29.196Z,8.43
2023-03-01T14:19:59.892Z,8.43
2023-03-01T14:22:30.844Z,8.43
2023-03-01T14:25:01.685Z,8.47
2023-03-01T14:27:36.571Z,8.54
2023-03-01T14:30:14.107Z,8.59
2023-03-01T14:32:42.049Z,8.61
2023-03-01T14:35:42.771Z,8.59
2023-03-01T14:38:22.346Z,8.51
2023-03-01T14:40:56.308Z,8.45
2023-03-01T14:43:27.328Z,8.41
2023-03-01T14:45:55.342Z,8.34
2023-03-01T14:48:24.137Z,8.26
2023-03-01T14:50:52.202Z,8.20
2023-03-01T14:53:23.889Z,8.15
2023-03-01T14:55:55.378Z,8.09
2023-03-01T14:58:25.874Z,8.03
2023-03-01T15:01:00.392Z,7.98
2023-03-01T15:03:42.012Z,7.95
2023-03-01T15:06:12.971Z,7.90
2023-03-01T15:08:48.526Z,7.82
2023-03-01T15:11:25.589Z,7.77
2023-03-01T15:13:55.361Z,7.72
2023-03-01T15:16:29.339Z,7.67
2023-03-01T15:19:03.564Z,7.61
2023-03-01T15:21:37.916Z,7.55
2023-03-01T15:24:12.966Z,7.49
2023-03-01T15:26:45.223Z,7.41
2023-03-01T15:29:34.602Z,7.33
2023-03-01T15:32:06.019Z,7.27
2023-03-01T15:34:37.884Z,7.20
2023-03-01T15:37:29.171Z,7.16
2023-03-01T15:39:58.410Z,7.10
2023-03-01T15:42:29.126Z,7.05
2023-03-01T15:45:18.028Z,7.02
2023-03-01T15:47:51.326Z,6.98
2023-03-01T15:50:34.053Z,6.95
2023-03-01T15:53:07.561Z,6.91
2023-03-01T15:55:35.455Z,6.86
2023-03-01T15:58:23.230Z,6.78
2023-03-01T16:01:01.964Z,6.69
2023-03-01T16:03:30.520Z,6.61
2023-03-01T16:05:58.484Z,6.53
2023-03-01T16:08:26.507Z,6.44
2023-03-01T16:11:01.530Z,6.35
2023-03-01T16:13:29.567Z,6.26
2023-03-01T16:15:57.552Z,6.17
2023-03-01T16:18:25.513Z,6.08
2023-03-01T16:20:55.162Z,5.99
2023-03-01T16:23:26.026Z,5.90
2023-03-01T16:25:53.945Z,5.82
2023-03-01T16:28:21.837Z,5.75
2023-03-01T16:30:50.313Z,5.68
2023-03-01T16:33:27.135Z,5.63
2023-03-01T16:36:01.244Z,5.61
2023-03-01T16:38:30.076Z,5.59
2023-03-01T16:40:57.978Z,5.58
2023-03-01T16:43:26.123Z,5.55
2023-03-01T16:45:54.185Z,5.50
2023-03-01T16:48:22.245Z,5.46
2023-03-01T16:51:02.544Z,5.41
2023-03-01T16:53:30.525Z,5.36
2023-03-01T16:56:00.366Z,5.33
2023-03-01T16:58:28.322Z,5.29
2023-03-01T17:00:57.579Z,5.25
2023-03-01T17:03:27.592Z,5.22
2023-03-01T17:05:55.671Z,5.17
2023-03-01T17:08:23.518Z,5.12
2023-03-01T17:10:51.343Z,5.06
2023-03-01T17:13:19.363Z,5.02
2023-03-01T17:15:47.160Z,5.00
2023-03-01T17:18:14.999Z,5.00
2023-03-01T17:20:42.806Z,4.99
2023-03-01T17:23:10.694Z,4.99
2023-03-01T17:25:53.029Z,5.00
2023-03-01T17:28:25.356Z,4.98
2023-03-01T17:30:54.686Z,4.97
2023-03-01T17:33:23.008Z,4.96
2023-03-01T17:35:53.175Z,4.92
2023-03-01T17:38:22.774Z,4.85
2023-03-01T17:40:50.734Z,4.77
2023-03-01T17:43:20.195Z,4.69
2023-03-01T17:45:52.247Z,4.60
2023-03-01T17:48:29.305Z,4.52
2023-03-01T17:50:57.290Z,4.46
2023-03-01T17:53:25.121Z,4.40
2023-03-01T17:56:01.007Z,4.33
2023-03-01T17:58:33.228Z,4.29
2023-03-01T18:01:17.540Z,4.26
2023-03-01T18:03:47.723Z,4.22
2023-03-01T18:06:24.588Z,4.17
2023-03-01T18:08:55.305Z,4.10
2023-03-01T18:11:24.891Z,4.00
2023-03-01T18:13:54.924Z,3.92
2023-03-01T18:16:23.443Z,3.86
2023-03-01T18:18:56.379Z,3.82
2023-03-01T18:21:24.562Z,3.78
2023-03-01T18:23:53.210Z,3.74
2023-03-01T18:26:22.756Z,3.72
2023-03-01T18:28:52.028Z,3.69
2023-03-01T18:31:22.790Z,3.67
2023-03-01T18:33:57.592Z,3.63
2023-03-01T18:36:28.332Z,3.62
2023-03-01T18:38:57.071Z,3.60
2023-03-01T18:41:27.022Z,3.57
2023-03-01T18:43:56.736Z,3.57
2023-03-01T18:46:25.851Z,3.57
2023-03-01T18:48:54.333Z,3.56
2023-03-01T18:51:29.063Z,3.55
2023-03-01T18:54:00.992Z,3.52
2023-03-01T18:56:31.043Z,3.50
2023-03-01T18:59:04.022Z,3.50
2023-03-01T19:01:36.228Z,3.49
2023-03-01T19:04:06.188Z,3.50
2023-03-01T19:06:35.554Z,3.51
2023-03-01T19:09:05.069Z,3.51
2023-03-01T19:11:34.278Z,3.49
2023-03-01T19:14:03.850Z,3.48
2023-03-01T19:16:33.641Z,3.46
2023-03-01T19:19:03.992Z,3.45
2023-03-01T19:21:33.576Z,3.46
2023-03-01T19:24:05.128Z,3.46
2023-03-01T19:26:34.365Z,3.48
2023-03-01T19:29:04.016Z,3.51
2023-03-01T19:31:32.151Z,3.51
2023-03-01T19:34:10.404Z,3.51
2023-03-01T19:36:43.586Z,3.52
2023-03-01T19:39:13.498Z,3.52
2023-03-01T19:41:43.986Z,3.53
2023-03-01T19:44:12.404Z,3.54
2023-03-01T19:46:41.052Z,3.56
2023-03-01T19:49:10.324Z,3.57
2023-03-01T19:51:40.396Z,3.59
2023-03-01T19:54:11.065Z,3.61
2023-03-01T19:56:39.400Z,3.63
2023-03-01T19:59:07.442Z,3.66
2023-03-01T20:01:35.477Z,3.70
2023-03-01T20:04:04.272Z,3.73
2023-03-01T20:06:32.676Z,3.76
2023-03-01T20:09:15.257Z,3.78
2023-03-01T20:11:47.289Z,3.77
2023-03-01T20:14:15.311Z,3.75
2023-03-01T20:16:43.201Z,3.76
2023-03-01T20:19:11.125Z,3.75
2023-03-01T20:21:39.131Z,3.73
2023-03-01T20:24:07.213Z,3.68
2023-03-01T20:26:36.792Z,3.63
2023-03-01T20:29:07.359Z,3.56
2023-03-01T20:31:35.287Z,3.48
2023-03-01T20:34:04.641Z,3.41
2023-03-01T20:36:34.218Z,3.38
2023-03-01T20:39:02.597Z,3.37
2023-03-01T20:41:30.803Z,3.36
2023-03-01T20:44:00.337Z,3.37
2023-03-01T20:46:32.416Z,3.35
2023-03-01T20:49:01.667Z,3.34
2023-03-01T20:51:30.427Z,3.32
2023-03-01T20:53:58.543Z,3.33
2023-03-01T20:56:27.426Z,3.33
2023-03-01T20:58:58.489Z,3.35
2023-03-01T21:01:27.546Z,3.40
2023-03-01T21:03:56.109Z,3.40
2023-03-01T21:06:24.277Z,3.38
2023-03-01T21:08:52.121Z,3.36
2023-03-01T21:11:20.067Z,3.35
2023-03-01T21:13:48.212Z,3.33
2023-03-01T21:16:17.082Z,3.31
2023-03-01T21:18:45.674Z,3.31
2023-03-01T21:21:16.910Z,3.29
2023-03-01T21:23:46.133Z,3.28
2023-03-01T21:26:26.362Z,3.25
2023-03-01T21:28:57.398Z,3.20
2023-03-01T21:31:28.584Z,3.19
2023-03-01T21:33:58.410Z,3.19
2023-03-01T21:36:28.744Z,3.16
2023-03-01T21:38:58.712Z,3.15
2023-03-01T21:41:29.515Z,3.15
2023-03-01T21:44:00.750Z,3.15
2023-03-01T21:46:31.361Z,3.13
2023-03-01T21:48:59.757Z,3.11
2023-03-01T21:51:28.473Z,3.08
2023-03-01T21:53:56.531Z,3.07
2023-03-01T21:56:27.525Z,3.07
2023-03-01T21:58:57.035Z,3.09
2023-03-01T22:01:27.356Z,3.09
2023-03-01T22:04:00.886Z,3.07
2023-03-01T22:06:34.133Z,3.07
2023-03-01T22:09:13.173Z,3.08
2023-03-01T22:11:44.388Z,3.08
2023-03-01T22:14:13.884Z,3.08
2023-03-01T22:16:45.271Z,3.06
2023-03-01T22:19:15.343Z,3.01
2023-03-01T22:21:46.096Z,2.95
2023-03-01T22:24:15.098Z,2.91
2023-03-01T22:26:45.321Z,2.88
2023-03-01T22:29:19.223Z,2.85
2023-03-01T22:31:47.183Z,2.82
2023-03-01T22:34:17.225Z,2.81
2023-03-01T22:36:46.050Z,2.79
2023-03-01T22:39:16.817Z,2.77
2023-03-01T22:41:48.128Z,2.75
2023-03-01T22:44:23.592Z,2.72
2023-03-01T22:46:52.043Z,2.69
2023-03-01T22:49:21.208Z,2.68
2023-03-01T22:51:49.332Z,2.67
2023-03-01T22:54:19.049Z,2.64
2023-03-01T22:56:47.646Z,2.59
2023-03-01T22:59:23.113Z,2.55
2023-03-01T23:01:52.760Z,2.50
2023-03-01T23:04:22.409Z,2.47
2023-03-01T23:06:50.755Z,2.43
2023-03-01T23:09:22.632Z,2.38
2023-03-01T23:11:52.182Z,2.35
2023-03-01T23:14:21.398Z,2.36
2023-03-01T23:16:50.271Z,2.38
2023-03-01T23:19:18.809Z,2.40
2023-03-01T23:21:50.260Z,2.40
2023-03-01T23:24:20.059Z,2.42
2023-03-01T23:26:53.462Z,2.45
2023-03-01T23:29:22.487Z,2.47
2023-03-01T23:31:50.654Z,2.48
2023-03-01T23:34:19.250Z,2.51
2023-03-01T23:36:47.138Z,2.54
2023-03-01T23:39:15.200Z,2.59
2023-03-01T23:41:43.280Z,2.63
2023-03-01T23:44:16.862Z,2.66
2023-03-01T23:46:46.174Z,2.66
2023-03-01T23:49:17.170Z,2.67
2023-03-01T23:51:47.739Z,2.69
2023-03-01T23:54:18.764Z,2.72
2023-03-01T23:56:47.407Z,2.75
2023-03-01T23:59:19.337Z,2.79
